Glens Falls, NY

23:21 EST le 25 janvier 2015 (GMT -0500)
Schenectady County | Change Station
CLOSE
Current Station
Aéroport
Location: Schenectady,
Altitude: 377 ft
Stations météo à proximité
Avis météorologiques actifs: Winter Storm Warning

Alt. 377 ft 42.85 °N, 73.93 °W | Updated 3 hours ago

Ciel dégagé
Ciel dégagé
18 ° F
Paraît 8 ° F
N
7
Vent Variable Vent de ONO

Aujourd'hui
Haut(e) -- | Bas -- ° F
--% Risque de précip.
Hier
Haut(e) -- | Bas -- ° F
Precip. -- pouce
7:17 AM 4:56 PM
Lune montante, 39% visible
Pression 29.99 pouce
Visibilité 10.0 Miles terrestres
Nuages Ciel dégagé
Refroidissement éolien 8 ° F
Point de rosée 1 ° F
Humidité 49%
Précipitations 0.00 pouce
Profondeur de la couche neigeuse Non disponible.
UV 0 sur 12
Pollen .10 sur 12
Qualité de l'air Non disponible.
Flu Activity Non disponible.
METAR KSCH 260050Z 29006KT 10SM CLR M08/M17 A2999

More Conditions Fewer Conditions

Pression 29.99 pouce
Visibilité 10.0 Miles terrestres
Nuages Ciel dégagé
Refroidissement éolien 8 ° F
Point de rosée 1 ° F
Humidité 49%
Précipitations 0.00 pouce
Profondeur de la couche neigeuse Non disponible.
UV 0 sur 12
Pollen .10 sur 12
Qualité de l'air Non disponible.
Flu Activity Non disponible.
METAR KSCH 260050Z 29006KT 10SM CLR M08/M17 A2999

More Conditions Fewer Conditions

10-Day Weather Forecast

Almanac

Astronomie

Jan. 25, 2015 Lever Coucher
Temps réel
Crépuscule civil
Crépuscule nautique
Crépuscule astronomique
Lune
Durée de lumière visible
Longueur du jour
Tomorrow will be .
, % of the Moon is Illuminated

Extrêmes aujourd'hui

State Highs State Lows

Community

WunderPhotos

Upload Photos

1,790,135 Photos téléchargées !

WunderBlogs® & News

Nearby

Qualité de l'air

  Qualité de l'air Indice de la qualité de l'air Polluant
Not available.

Épaisseur de neige

Station Depth Altitude

Activité sismique

Ville Distance Mag. Time & Date
Minimum magnitude displayed is 2.5.

Températures des eaux côtières

Lieu Température

Stations météo à proximité